sensor_id;sensor_type;location;lat;lon;timestamp;pressure;altitude;pressure_sealevel;temperature;humidity
39411;BME280;26579;43.238;23.124;2024-03-29T00:02:02;96603.66;;;16.97;34.05
39411;BME280;26579;43.238;23.124;2024-03-29T00:04:27;96573.81;;;16.90;34.20
39411;BME280;26579;43.238;23.124;2024-03-29T00:06:53;96590.88;;;16.94;34.36
39411;BME280;26579;43.238;23.124;2024-03-29T00:09:19;96585.31;;;16.89;34.67
39411;BME280;26579;43.238;23.124;2024-03-29T00:11:45;96600.25;;;16.89;34.59
39411;BME280;26579;43.238;23.124;2024-03-29T00:14:10;96604.72;;;16.88;34.71
39411;BME280;26579;43.238;23.124;2024-03-29T00:16:36;96592.06;;;16.84;35.05
39411;BME280;26579;43.238;23.124;2024-03-29T00:19:02;96586.00;;;16.83;34.94
39411;BME280;26579;43.238;23.124;2024-03-29T00:21:27;96609.16;;;16.88;35.00
39411;BME280;26579;43.238;23.124;2024-03-29T00:23:53;96578.31;;;16.82;35.05
39411;BME280;26579;43.238;23.124;2024-03-29T00:26:18;96602.59;;;16.84;35.22
39411;BME280;26579;43.238;23.124;2024-03-29T00:28:44;96586.34;;;16.80;35.31
39411;BME280;26579;43.238;23.124;2024-03-29T00:31:09;96582.25;;;16.78;35.55
39411;BME280;26579;43.238;23.124;2024-03-29T00:33:35;96589.94;;;16.87;35.31
39411;BME280;26579;43.238;23.124;2024-03-29T00:36:01;96585.66;;;16.86;35.43
39411;BME280;26579;43.238;23.124;2024-03-29T00:38:27;96571.88;;;16.84;35.49
39411;BME280;26579;43.238;23.124;2024-03-29T00:40:52;96566.78;;;16.83;35.63
39411;BME280;26579;43.238;23.124;2024-03-29T00:43:18;96575.19;;;16.78;35.47
39411;BME280;26579;43.238;23.124;2024-03-29T00:45:44;96585.31;;;16.89;35.26
39411;BME280;26579;43.238;23.124;2024-03-29T00:48:09;96590.41;;;16.91;35.19
39411;BME280;26579;43.238;23.124;2024-03-29T00:50:35;96571.38;;;16.81;35.03
39411;BME280;26579;43.238;23.124;2024-03-29T00:53:01;96574.31;;;16.86;34.98
39411;BME280;26579;43.238;23.124;2024-03-29T00:55:26;96570.34;;;16.90;34.88
39411;BME280;26579;43.238;23.124;2024-03-29T00:57:52;96569.66;;;16.96;34.88
39411;BME280;26579;43.238;23.124;2024-03-29T01:00:17;96568.28;;;17.08;34.69
39411;BME280;26579;43.238;23.124;2024-03-29T01:02:43;96576.78;;;17.10;34.99
39411;BME280;26579;43.238;23.124;2024-03-29T01:05:09;96572.38;;;17.11;34.68
39411;BME280;26579;43.238;23.124;2024-03-29T01:07:34;96581.81;;;17.20;34.55
39411;BME280;26579;43.238;23.124;2024-03-29T01:10:00;96571.59;;;17.25;34.26
39411;BME280;26579;43.238;23.124;2024-03-29T01:12:26;96578.31;;;17.28;34.01
39411;BME280;26579;43.238;23.124;2024-03-29T01:14:52;96568.69;;;17.20;34.48
39411;BME280;26579;43.238;23.124;2024-03-29T01:17:17;96584.88;;;17.32;33.86
39411;BME280;26579;43.238;23.124;2024-03-29T01:19:43;96573.34;;;17.33;33.99
39411;BME280;26579;43.238;23.124;2024-03-29T01:22:09;96595.59;;;17.45;33.77
39411;BME280;26579;43.238;23.124;2024-03-29T01:24:34;96586.88;;;17.45;33.63
39411;BME280;26579;43.238;23.124;2024-03-29T01:27:00;96597.25;;;17.46;33.68
39411;BME280;26579;43.238;23.124;2024-03-29T01:29:26;96597.81;;;17.56;33.44
39411;BME280;26579;43.238;23.124;2024-03-29T01:31:51;96594.19;;;17.57;33.54
39411;BME280;26579;43.238;23.124;2024-03-29T01:34:17;96606.66;;;17.63;33.53
39411;BME280;26579;43.238;23.124;2024-03-29T01:36:43;96624.44;;;17.61;33.59
39411;BME280;26579;43.238;23.124;2024-03-29T01:39:08;96615.34;;;17.64;33.52
39411;BME280;26579;43.238;23.124;2024-03-29T01:41:34;96616.81;;;17.67;33.33
39411;BME280;26579;43.238;23.124;2024-03-29T01:43:59;96624.53;;;17.68;33.41
39411;BME280;26579;43.238;23.124;2024-03-29T01:46:26;96627.66;;;17.72;33.46
39411;BME280;26579;43.238;23.124;2024-03-29T01:48:53;96635.53;;;17.72;33.46
39411;BME280;26579;43.238;23.124;2024-03-29T01:51:23;96641.63;;;17.72;33.47
39411;BME280;26579;43.238;23.124;2024-03-29T01:53:50;96647.84;;;17.79;33.30
39411;BME280;26579;43.238;23.124;2024-03-29T01:56:18;96653.28;;;17.78;33.60
39411;BME280;26579;43.238;23.124;2024-03-29T01:58:45;96652.94;;;17.81;33.53
39411;BME280;26579;43.238;23.124;2024-03-29T02:01:11;96636.00;;;17.75;33.66
39411;BME280;26579;43.238;23.124;2024-03-29T02:03:39;96650.78;;;17.76;33.81
39411;BME280;26579;43.238;23.124;2024-03-29T02:06:06;96659.75;;;17.67;34.09
39411;BME280;26579;43.238;23.124;2024-03-29T02:08:33;96662.28;;;17.60;34.42
39411;BME280;26579;43.238;23.124;2024-03-29T02:10:59;96662.28;;;17.60;34.24
39411;BME280;26579;43.238;23.124;2024-03-29T02:13:25;96648.00;;;17.55;34.19
39411;BME280;26579;43.238;23.124;2024-03-29T02:15:50;96659.66;;;17.60;34.36
39411;BME280;26579;43.238;23.124;2024-03-29T02:18:16;96662.03;;;17.47;34.45
39411;BME280;26579;43.238;23.124;2024-03-29T02:20:41;96680.41;;;17.55;34.20
39411;BME280;26579;43.238;23.124;2024-03-29T02:23:10;96680.75;;;17.52;34.25
39411;BME280;26579;43.238;23.124;2024-03-29T02:25:36;96669.47;;;17.43;34.24
39411;BME280;26579;43.238;23.124;2024-03-29T02:28:03;96682.97;;;17.40;34.98
39411;BME280;26579;43.238;23.124;2024-03-29T02:30:30;96686.06;;;17.44;34.70
39411;BME280;26579;43.238;23.124;2024-03-29T02:32:57;96677.41;;;17.35;34.65
39411;BME280;26579;43.238;23.124;2024-03-29T02:35:22;96704.50;;;17.44;34.44
39411;BME280;26579;43.238;23.124;2024-03-29T02:37:48;96695.44;;;17.47;34.78
39411;BME280;26579;43.238;23.124;2024-03-29T02:40:14;96688.06;;;17.42;34.65
39411;BME280;26579;43.238;23.124;2024-03-29T02:42:39;96701.69;;;17.46;34.79
39411;BME280;26579;43.238;23.124;2024-03-29T02:45:05;96708.47;;;17.40;34.47
39411;BME280;26579;43.238;23.124;2024-03-29T02:47:31;96709.59;;;17.46;34.39
39411;BME280;26579;43.238;23.124;2024-03-29T02:49:56;96730.41;;;17.55;34.07
39411;BME280;26579;43.238;23.124;2024-03-29T02:52:22;96715.78;;;17.53;34.19
39411;BME280;26579;43.238;23.124;2024-03-29T02:54:48;96731.41;;;17.54;34.20
39411;BME280;26579;43.238;23.124;2024-03-29T02:57:13;96741.75;;;17.56;34.42
39411;BME280;26579;43.238;23.124;2024-03-29T02:59:42;96754.75;;;17.57;34.11
39411;BME280;26579;43.238;23.124;2024-03-29T03:02:08;96745.91;;;17.50;34.56
39411;BME280;26579;43.238;23.124;2024-03-29T03:04:34;96753.44;;;17.53;34.22
39411;BME280;26579;43.238;23.124;2024-03-29T03:06:59;96767.56;;;17.60;35.12
39411;BME280;26579;43.238;23.124;2024-03-29T03:09:25;96762.50;;;17.51;34.99
39411;BME280;26579;43.238;23.124;2024-03-29T03:11:50;96779.78;;;17.53;35.18
39411;BME280;26579;43.238;23.124;2024-03-29T03:14:16;96788.81;;;17.51;34.72
39411;BME280;26579;43.238;23.124;2024-03-29T03:16:41;96792.13;;;17.53;34.36
39411;BME280;26579;43.238;23.124;2024-03-29T03:19:07;96799.19;;;17.52;34.63
39411;BME280;26579;43.238;23.124;2024-03-29T03:21:34;96803.59;;;17.60;34.23
39411;BME280;26579;43.238;23.124;2024-03-29T03:23:59;96802.13;;;17.57;34.08
39411;BME280;26579;43.238;23.124;2024-03-29T03:26:25;96810.31;;;17.62;34.71
39411;BME280;26579;43.238;23.124;2024-03-29T03:28:51;96808.72;;;17.53;34.19
39411;BME280;26579;43.238;23.124;2024-03-29T03:31:16;96813.78;;;17.63;34.55
39411;BME280;26579;43.238;23.124;2024-03-29T03:33:42;96813.44;;;17.66;34.68
39411;BME280;26579;43.238;23.124;2024-03-29T03:36:07;96821.69;;;17.63;34.96
39411;BME280;26579;43.238;23.124;2024-03-29T03:38:33;96833.19;;;17.62;35.26
39411;BME280;26579;43.238;23.124;2024-03-29T03:40:59;96827.00;;;17.55;35.64
39411;BME280;26579;43.238;23.124;2024-03-29T03:43:24;96841.47;;;17.51;35.69
39411;BME280;26579;43.238;23.124;2024-03-29T03:45:50;96849.34;;;17.51;35.91
39411;BME280;26579;43.238;23.124;2024-03-29T03:48:15;96853.84;;;17.42;36.12
39411;BME280;26579;43.238;23.124;2024-03-29T03:50:41;96855.53;;;17.35;36.18
39411;BME280;26579;43.238;23.124;2024-03-29T03:53:07;96859.66;;;17.29;36.68
39411;BME280;26579;43.238;23.124;2024-03-29T03:55:36;96877.25;;;17.29;36.80
39411;BME280;26579;43.238;23.124;2024-03-29T03:58:02;96878.56;;;17.25;36.86
39411;BME280;26579;43.238;23.124;2024-03-29T04:00:28;96884.84;;;17.15;37.29
39411;BME280;26579;43.238;23.124;2024-03-29T04:02:54;96889.97;;;16.92;37.36
39411;BME280;26579;43.238;23.124;2024-03-29T04:05:20;96901.16;;;16.86;37.96
39411;BME280;26579;43.238;23.124;2024-03-29T04:07:46;96901.16;;;16.78;37.97
39411;BME280;26579;43.238;23.124;2024-03-29T04:10:13;96908.53;;;16.74;38.44
39411;BME280;26579;43.238;23.124;2024-03-29T04:12:38;96912.47;;;16.70;38.38
39411;BME280;26579;43.238;23.124;2024-03-29T04:15:05;96936.78;;;16.64;39.23
39411;BME280;26579;43.238;23.124;2024-03-29T04:17:32;96938.75;;;16.54;40.10
39411;BME280;26579;43.238;23.124;2024-03-29T04:19:59;96935.78;;;16.41;39.71
39411;BME280;26579;43.238;23.124;2024-03-29T04:22:27;96943.66;;;16.33;40.40
39411;BME280;26579;43.238;23.124;2024-03-29T04:24:53;96955.59;;;16.19;40.10
39411;BME280;26579;43.238;23.124;2024-03-29T04:27:19;96959.66;;;16.05;40.37
39411;BME280;26579;43.238;23.124;2024-03-29T04:29:44;96961.97;;;16.00;40.43
39411;BME280;26579;43.238;23.124;2024-03-29T04:32:10;96977.38;;;16.03;40.53
39411;BME280;26579;43.238;23.124;2024-03-29T04:34:35;96976.03;;;15.99;40.79
39411;BME280;26579;43.238;23.124;2024-03-29T04:37:01;96983.41;;;15.95;40.84
39411;BME280;26579;43.238;23.124;2024-03-29T04:39:27;96990.28;;;15.88;40.82
39411;BME280;26579;43.238;23.124;2024-03-29T04:41:53;96983.06;;;15.90;40.82
39411;BME280;26579;43.238;23.124;2024-03-29T04:44:26;97003.78;;;16.01;40.71
39411;BME280;26579;43.238;23.124;2024-03-29T04:46:53;97005.56;;;15.93;40.85
39411;BME280;26579;43.238;23.124;2024-03-29T04:49:19;97020.09;;;15.79;40.88
39411;BME280;26579;43.238;23.124;2024-03-29T04:51:45;97018.69;;;15.93;40.15
39411;BME280;26579;43.238;23.124;2024-03-29T04:54:10;97012.75;;;15.91;40.68
39411;BME280;26579;43.238;23.124;2024-03-29T04:56:36;97030.50;;;15.97;41.07
39411;BME280;26579;43.238;23.124;2024-03-29T04:59:02;97033.34;;;16.03;40.93
39411;BME280;26579;43.238;23.124;2024-03-29T05:01:28;97019.41;;;16.03;40.57
39411;BME280;26579;43.238;23.124;2024-03-29T05:03:53;97030.72;;;16.03;40.48
39411;BME280;26579;43.238;23.124;2024-03-29T05:06:19;97032.13;;;16.24;40.25
39411;BME280;26579;43.238;23.124;2024-03-29T05:08:44;97019.78;;;16.16;40.37
39411;BME280;26579;43.238;23.124;2024-03-29T05:11:10;97026.16;;;16.14;40.59
39411;BME280;26579;43.238;23.124;2024-03-29T05:13:36;97043.16;;;16.36;41.13
39411;BME280;26579;43.238;23.124;2024-03-29T05:16:01;97033.03;;;16.57;40.40
39411;BME280;26579;43.238;23.124;2024-03-29T05:18:27;97050.72;;;16.97;39.90
39411;BME280;26579;43.238;23.124;2024-03-29T05:20:53;97053.88;;;17.26;39.32
39411;BME280;26579;43.238;23.124;2024-03-29T05:23:18;97053.69;;;17.35;38.83
39411;BME280;26579;43.238;23.124;2024-03-29T05:25:44;97048.91;;;17.63;38.80
39411;BME280;26579;43.238;23.124;2024-03-29T05:28:10;97047.41;;;17.69;38.65
39411;BME280;26579;43.238;23.124;2024-03-29T05:30:35;97050.66;;;17.96;38.56
39411;BME280;26579;43.238;23.124;2024-03-29T05:33:03;97044.50;;;18.12;37.66
39411;BME280;26579;43.238;23.124;2024-03-29T05:35:29;97043.72;;;18.42;37.34
39411;BME280;26579;43.238;23.124;2024-03-29T05:37:54;97041.06;;;18.50;37.00
39411;BME280;26579;43.238;23.124;2024-03-29T05:40:20;97051.16;;;18.70;36.86
39411;BME280;26579;43.238;23.124;2024-03-29T05:42:46;97048.25;;;18.88;36.00
39411;BME280;26579;43.238;23.124;2024-03-29T05:45:23;97045.78;;;19.17;35.11
39411;BME280;26579;43.238;23.124;2024-03-29T05:47:49;97047.03;;;19.21;35.81
39411;BME280;26579;43.238;23.124;2024-03-29T05:50:14;97051.31;;;19.22;35.66
39411;BME280;26579;43.238;23.124;2024-03-29T05:52:40;97054.69;;;19.54;35.27
39411;BME280;26579;43.238;23.124;2024-03-29T05:55:06;97044.53;;;19.66;34.83
39411;BME280;26579;43.238;23.124;2024-03-29T05:57:31;97044.75;;;19.79;34.70
39411;BME280;26579;43.238;23.124;2024-03-29T05:59:57;97052.22;;;20.05;34.51
39411;BME280;26579;43.238;23.124;2024-03-29T06:02:23;97054.50;;;20.23;34.28
39411;BME280;26579;43.238;23.124;2024-03-29T06:04:48;97056.66;;;20.49;34.38
39411;BME280;26579;43.238;23.124;2024-03-29T06:07:14;97060.56;;;20.68;34.79
39411;BME280;26579;43.238;23.124;2024-03-29T06:09:40;97061.81;;;20.72;34.22
39411;BME280;26579;43.238;23.124;2024-03-29T06:12:05;97058.69;;;20.84;34.04
39411;BME280;26579;43.238;23.124;2024-03-29T06:14:31;97055.47;;;20.88;34.42
39411;BME280;26579;43.238;23.124;2024-03-29T06:16:57;97062.00;;;20.71;34.01
39411;BME280;26579;43.238;23.124;2024-03-29T06:19:22;97066.72;;;20.54;34.10
39411;BME280;26579;43.238;23.124;2024-03-29T06:21:48;97060.69;;;20.45;33.45
39411;BME280;26579;43.238;23.124;2024-03-29T06:24:13;97052.41;;;20.33;32.71
39411;BME280;26579;43.238;23.124;2024-03-29T06:26:39;97052.03;;;20.22;32.02
39411;BME280;26579;43.238;23.124;2024-03-29T06:29:05;97054.03;;;20.34;33.33
39411;BME280;26579;43.238;23.124;2024-03-29T06:31:31;97063.88;;;20.55;30.99
39411;BME280;26579;43.238;23.124;2024-03-29T06:33:57;97060.53;;;20.83;31.16
39411;BME280;26579;43.238;23.124;2024-03-29T06:36:23;97064.75;;;21.20;30.87
39411;BME280;26579;43.238;23.124;2024-03-29T06:38:49;97062.22;;;21.55;30.20
39411;BME280;26579;43.238;23.124;2024-03-29T06:41:16;97059.16;;;21.80;29.29
39411;BME280;26579;43.238;23.124;2024-03-29T06:43:42;97043.72;;;21.90;29.36
39411;BME280;26579;43.238;23.124;2024-03-29T06:46:08;97055.56;;;22.22;28.73
39411;BME280;26579;43.238;23.124;2024-03-29T06:48:34;97057.72;;;22.40;28.64
39411;BME280;26579;43.238;23.124;2024-03-29T06:50:59;97059.97;;;22.43;27.93
39411;BME280;26579;43.238;23.124;2024-03-29T06:53:25;97065.72;;;22.60;28.34
39411;BME280;26579;43.238;23.124;2024-03-29T06:55:51;97064.72;;;22.54;28.48
39411;BME280;26579;43.238;23.124;2024-03-29T06:58:17;97056.59;;;22.69;28.92
39411;BME280;26579;43.238;23.124;2024-03-29T07:00:46;97059.34;;;23.02;27.99
39411;BME280;26579;43.238;23.124;2024-03-29T07:03:12;97065.69;;;23.15;28.02
39411;BME280;26579;43.238;23.124;2024-03-29T07:05:37;97066.34;;;23.43;27.33
39411;BME280;26579;43.238;23.124;2024-03-29T07:08:03;97067.59;;;23.47;27.43
39411;BME280;26579;43.238;23.124;2024-03-29T07:10:29;97076.59;;;23.60;27.26
39411;BME280;26579;43.238;23.124;2024-03-29T07:12:54;97079.47;;;23.71;26.39
39411;BME280;26579;43.238;23.124;2024-03-29T07:15:20;97075.78;;;23.86;25.62
39411;BME280;26579;43.238;23.124;2024-03-29T07:17:46;97092.13;;;23.76;25.86
39411;BME280;26579;43.238;23.124;2024-03-29T07:20:11;97090.09;;;23.71;26.39
39411;BME280;26579;43.238;23.124;2024-03-29T07:22:37;97079.84;;;23.95;25.81
39411;BME280;26579;43.238;23.124;2024-03-29T07:25:03;97082.88;;;24.05;25.50
39411;BME280;26579;43.238;23.124;2024-03-29T07:27:28;97089.44;;;24.16;25.17
39411;BME280;26579;43.238;23.124;2024-03-29T07:29:57;97075.72;;;24.19;24.48
39411;BME280;26579;43.238;23.124;2024-03-29T07:32:22;97075.94;;;24.17;24.73
39411;BME280;26579;43.238;23.124;2024-03-29T07:34:48;97085.09;;;24.28;25.50
39411;BME280;26579;43.238;23.124;2024-03-29T07:37:13;97092.25;;;24.34;25.94
39411;BME280;26579;43.238;23.124;2024-03-29T07:39:39;97095.34;;;24.25;24.98
39411;BME280;26579;43.238;23.124;2024-03-29T07:42:05;97083.25;;;24.29;25.24
39411;BME280;26579;43.238;23.124;2024-03-29T07:44:31;97086.34;;;24.19;24.44
39411;BME280;26579;43.238;23.124;2024-03-29T07:46:56;97080.25;;;23.99;24.81
39411;BME280;26579;43.238;23.124;2024-03-29T07:49:22;97088.03;;;24.00;26.24
39411;BME280;26579;43.238;23.124;2024-03-29T07:51:48;97088.81;;;24.14;25.77
39411;BME280;26579;43.238;23.124;2024-03-29T07:54:13;97078.22;;;23.81;24.39
39411;BME280;26579;43.238;23.124;2024-03-29T07:56:39;97102.53;;;24.04;25.06
39411;BME280;26579;43.238;23.124;2024-03-29T07:59:05;97085.56;;;23.99;24.58
39411;BME280;26579;43.238;23.124;2024-03-29T08:01:30;97086.75;;;24.16;24.18
39411;BME280;26579;43.238;23.124;2024-03-29T08:03:56;97083.22;;;24.42;25.29
39411;BME280;26579;43.238;23.124;2024-03-29T08:06:22;97068.91;;;24.36;24.76
39411;BME280;26579;43.238;23.124;2024-03-29T08:08:48;97071.56;;;24.50;24.60
39411;BME280;26579;43.238;23.124;2024-03-29T08:11:13;97056.75;;;24.60;24.68
39411;BME280;26579;43.238;23.124;2024-03-29T08:13:40;97068.13;;;24.88;25.06
39411;BME280;26579;43.238;23.124;2024-03-29T08:16:06;97055.38;;;24.96;24.31
39411;BME280;26579;43.238;23.124;2024-03-29T08:18:32;97054.53;;;24.96;24.23
39411;BME280;26579;43.238;23.124;2024-03-29T08:20:57;97047.81;;;24.93;24.47
39411;BME280;26579;43.238;23.124;2024-03-29T08:23:23;97049.19;;;25.02;23.82
39411;BME280;26579;43.238;23.124;2024-03-29T08:25:49;97053.34;;;24.92;23.90
39411;BME280;26579;43.238;23.124;2024-03-29T08:28:15;97046.47;;;25.09;24.15
39411;BME280;26579;43.238;23.124;2024-03-29T08:30:41;97046.75;;;25.33;24.17
39411;BME280;26579;43.238;23.124;2024-03-29T08:33:06;97043.00;;;25.40;24.04
39411;BME280;26579;43.238;23.124;2024-03-29T08:35:33;97049.47;;;25.51;24.12
39411;BME280;26579;43.238;23.124;2024-03-29T08:38:00;97046.25;;;25.67;23.41
39411;BME280;26579;43.238;23.124;2024-03-29T08:40:27;97041.63;;;25.81;23.31
39411;BME280;26579;43.238;23.124;2024-03-29T08:42:53;97038.56;;;25.27;24.87
39411;BME280;26579;43.238;23.124;2024-03-29T08:45:18;97042.75;;;25.10;24.19
39411;BME280;26579;43.238;23.124;2024-03-29T08:47:44;97036.84;;;24.76;24.39
39411;BME280;26579;43.238;23.124;2024-03-29T08:50:10;97034.88;;;24.97;24.40
39411;BME280;26579;43.238;23.124;2024-03-29T08:52:35;97036.91;;;25.33;24.79
39411;BME280;26579;43.238;23.124;2024-03-29T08:55:01;97040.41;;;25.77;24.46
39411;BME280;26579;43.238;23.124;2024-03-29T08:57:28;97043.59;;;25.92;23.43
39411;BME280;26579;43.238;23.124;2024-03-29T08:59:54;97045.56;;;25.53;23.41
39411;BME280;26579;43.238;23.124;2024-03-29T09:02:19;97057.91;;;25.73;25.00
39411;BME280;26579;43.238;23.124;2024-03-29T09:04:45;97050.13;;;25.71;23.38
39411;BME280;26579;43.238;23.124;2024-03-29T09:07:10;97046.75;;;25.83;23.64
39411;BME280;26579;43.238;23.124;2024-03-29T09:09:36;97043.84;;;26.09;23.29
39411;BME280;26579;43.238;23.124;2024-03-29T09:12:02;97037.31;;;26.05;22.80
39411;BME280;26579;43.238;23.124;2024-03-29T09:14:28;97036.84;;;25.90;22.78
39411;BME280;26579;43.238;23.124;2024-03-29T09:16:53;97029.44;;;26.29;22.67
39411;BME280;26579;43.238;23.124;2024-03-29T09:19:19;97033.53;;;26.50;22.66
39411;BME280;26579;43.238;23.124;2024-03-29T09:21:45;97029.66;;;26.64;23.60
39411;BME280;26579;43.238;23.124;2024-03-29T09:24:10;97035.53;;;26.36;22.80
39411;BME280;26579;43.238;23.124;2024-03-29T09:26:36;97037.00;;;26.69;23.42
39411;BME280;26579;43.238;23.124;2024-03-29T09:29:02;97037.41;;;26.54;22.98
39411;BME280;26579;43.238;23.124;2024-03-29T09:31:27;97030.47;;;26.64;22.94
39411;BME280;26579;43.238;23.124;2024-03-29T09:33:53;97012.22;;;26.80;22.31
39411;BME280;26579;43.238;23.124;2024-03-29T09:36:21;97017.16;;;27.06;21.78
39411;BME280;26579;43.238;23.124;2024-03-29T09:38:47;96996.06;;;27.28;22.19
39411;BME280;26579;43.238;23.124;2024-03-29T09:41:19;97010.88;;;27.01;21.80
39411;BME280;26579;43.238;23.124;2024-03-29T09:43:46;97004.59;;;26.65;22.54
39411;BME280;26579;43.238;23.124;2024-03-29T09:46:13;97004.56;;;26.16;22.89
39411;BME280;26579;43.238;23.124;2024-03-29T09:48:43;97003.22;;;26.26;23.89
39411;BME280;26579;43.238;23.124;2024-03-29T09:51:09;96991.94;;;26.60;24.81
39411;BME280;26579;43.238;23.124;2024-03-29T09:53:37;96991.38;;;26.70;22.74
39411;BME280;26579;43.238;23.124;2024-03-29T09:56:04;96998.69;;;26.45;22.55
39411;BME280;26579;43.238;23.124;2024-03-29T09:58:30;96991.06;;;26.78;22.84
39411;BME280;26579;43.238;23.124;2024-03-29T10:00:56;96994.22;;;26.87;22.47
39411;BME280;26579;43.238;23.124;2024-03-29T10:03:24;96992.75;;;26.91;22.42
39411;BME280;26579;43.238;23.124;2024-03-29T10:05:50;96988.06;;;26.86;22.14
39411;BME280;26579;43.238;23.124;2024-03-29T10:08:16;97004.81;;;26.94;22.06
39411;BME280;26579;43.238;23.124;2024-03-29T10:10:42;97003.88;;;26.88;21.84
39411;BME280;26579;43.238;23.124;2024-03-29T10:13:07;97008.78;;;26.73;22.52
39411;BME280;26579;43.238;23.124;2024-03-29T10:15:33;97002.22;;;26.87;23.12
39411;BME280;26579;43.238;23.124;2024-03-29T10:17:58;96992.97;;;27.01;23.17
39411;BME280;26579;43.238;23.124;2024-03-29T10:20:24;96986.94;;;26.94;22.25
39411;BME280;26579;43.238;23.124;2024-03-29T10:22:50;96975.28;;;26.77;22.99
39411;BME280;26579;43.238;23.124;2024-03-29T10:25:16;96983.28;;;26.77;22.32
39411;BME280;26579;43.238;23.124;2024-03-29T10:27:41;96987.72;;;26.83;21.98
39411;BME280;26579;43.238;23.124;2024-03-29T10:30:08;96984.94;;;26.90;22.05
39411;BME280;26579;43.238;23.124;2024-03-29T10:32:40;96989.00;;;26.92;22.12
39411;BME280;26579;43.238;23.124;2024-03-29T10:35:06;96991.38;;;26.70;22.08
39411;BME280;26579;43.238;23.124;2024-03-29T10:37:32;96985.78;;;26.60;22.65
39411;BME280;26579;43.238;23.124;2024-03-29T10:39:58;96987.53;;;26.66;22.31
39411;BME280;26579;43.238;23.124;2024-03-29T10:42:24;96978.47;;;26.67;22.40
39411;BME280;26579;43.238;23.124;2024-03-29T10:44:49;96991.06;;;26.78;22.67
39411;BME280;26579;43.238;23.124;2024-03-29T10:47:19;96960.28;;;26.46;22.76
39411;BME280;26579;43.238;23.124;2024-03-29T10:49:49;96969.47;;;26.80;22.86
39411;BME280;26579;43.238;23.124;2024-03-29T10:52:15;96978.53;;;26.91;22.37
39411;BME280;26579;43.238;23.124;2024-03-29T10:54:44;96974.88;;;27.03;22.01
39411;BME280;26579;43.238;23.124;2024-03-29T10:57:20;96968.09;;;26.89;22.07
39411;BME280;26579;43.238;23.124;2024-03-29T11:05:08;96960.38;;;26.39;22.84
39411;BME280;26579;43.238;23.124;2024-03-29T11:07:37;96963.47;;;26.36;22.43
39411;BME280;26579;43.238;23.124;2024-03-29T11:10:05;96965.81;;;26.44;22.89
39411;BME280;26579;43.238;23.124;2024-03-29T11:15:29;96959.47;;;26.27;22.08
39411;BME280;26579;43.238;23.124;2024-03-29T11:17:56;96961.38;;;26.38;22.45
39411;BME280;26579;43.238;23.124;2024-03-29T11:20:37;96952.69;;;26.12;22.12
39411;BME280;26579;43.238;23.124;2024-03-29T11:23:06;96944.00;;;26.17;22.46
39411;BME280;26579;43.238;23.124;2024-03-29T11:25:43;96949.38;;;26.47;22.36
39411;BME280;26579;43.238;23.124;2024-03-29T11:28:12;96957.50;;;26.71;23.25
39411;BME280;26579;43.238;23.124;2024-03-29T11:30:42;96960.09;;;26.89;21.65
39411;BME280;26579;43.238;23.124;2024-03-29T11:33:08;96954.66;;;27.07;22.31
39411;BME280;26579;43.238;23.124;2024-03-29T11:35:39;96958.09;;;27.26;22.22
39411;BME280;26579;43.238;23.124;2024-03-29T11:38:05;96951.22;;;27.42;21.51
39411;BME280;26579;43.238;23.124;2024-03-29T11:40:30;96947.75;;;27.65;21.89
39411;BME280;26579;43.238;23.124;2024-03-29T11:42:56;96944.13;;;27.71;21.29
39411;BME280;26579;43.238;23.124;2024-03-29T11:45:25;96947.19;;;27.87;21.61
39411;BME280;26579;43.238;23.124;2024-03-29T11:47:51;96932.88;;;27.81;21.56
39411;BME280;26579;43.238;23.124;2024-03-29T11:50:17;96946.22;;;27.93;20.91
39411;BME280;26579;43.238;23.124;2024-03-29T11:52:43;96957.38;;;28.02;20.67
39411;BME280;26579;43.238;23.124;2024-03-29T11:55:09;96945.84;;;28.01;21.57
39411;BME280;26579;43.238;23.124;2024-03-29T11:57:34;96956.44;;;28.08;21.08
39411;BME280;26579;43.238;23.124;2024-03-29T12:00:00;96948.63;;;28.06;21.12
39411;BME280;26579;43.238;23.124;2024-03-29T12:02:26;96951.16;;;28.13;21.67
39411;BME280;26579;43.238;23.124;2024-03-29T12:04:51;96957.94;;;28.04;22.21
39411;BME280;26579;43.238;23.124;2024-03-29T12:07:17;96958.78;;;27.81;21.08
39411;BME280;26579;43.238;23.124;2024-03-29T12:09:43;96951.22;;;27.19;22.49
39411;BME280;26579;43.238;23.124;2024-03-29T12:12:09;96948.03;;;26.98;22.43
39411;BME280;26579;43.238;23.124;2024-03-29T12:14:35;96962.66;;;26.54;22.53
39411;BME280;26579;43.238;23.124;2024-03-29T12:17:01;96958.66;;;26.75;23.54
39411;BME280;26579;43.238;23.124;2024-03-29T12:19:27;96944.34;;;26.69;22.22
39411;BME280;26579;43.238;23.124;2024-03-29T12:21:53;96946.22;;;26.69;24.02
39411;BME280;26579;43.238;23.124;2024-03-29T12:24:20;96948.53;;;26.65;23.35
39411;BME280;26579;43.238;23.124;2024-03-29T12:26:48;96926.19;;;26.29;22.87
39411;BME280;26579;43.238;23.124;2024-03-29T12:29:13;96934.63;;;26.45;23.04
39411;BME280;26579;43.238;23.124;2024-03-29T12:31:39;96932.94;;;26.32;22.04
39411;BME280;26579;43.238;23.124;2024-03-29T12:34:05;96922.75;;;26.40;23.85
39411;BME280;26579;43.238;23.124;2024-03-29T12:36:31;96928.59;;;26.68;22.07
39411;BME280;26579;43.238;23.124;2024-03-29T12:38:58;96926.47;;;26.70;21.87
39411;BME280;26579;43.238;23.124;2024-03-29T12:41:24;96928.59;;;26.68;22.38
39411;BME280;26579;43.238;23.124;2024-03-29T12:43:53;96940.19;;;26.43;23.36
39411;BME280;26579;43.238;23.124;2024-03-29T12:46:19;96925.44;;;26.40;23.34
39411;BME280;26579;43.238;23.124;2024-03-29T12:48:44;96940.50;;;26.53;22.42
39411;BME280;26579;43.238;23.124;2024-03-29T12:51:10;96937.81;;;26.53;22.61
39411;BME280;26579;43.238;23.124;2024-03-29T12:53:39;96931.25;;;26.68;22.55